createdAt,value
2023-04-19T00:01:05.519Z,10.20
2023-04-19T00:03:32.261Z,11.73
2023-04-19T00:05:59.252Z,10.30
2023-04-19T00:08:26.375Z,10.30
2023-04-19T00:10:53.101Z,11.83
2023-04-19T00:13:19.758Z,10.63
2023-04-19T00:15:46.425Z,12.40
2023-04-19T00:18:13.010Z,10.33
2023-04-19T00:20:39.679Z,9.77
2023-04-19T00:23:06.347Z,11.53
2023-04-19T00:25:34.569Z,10.63
2023-04-19T00:28:01.323Z,10.60
2023-04-19T00:30:27.983Z,10.30
2023-04-19T00:32:54.733Z,10.70
2023-04-19T00:35:21.473Z,10.03
2023-04-19T00:37:48.022Z,9.80
2023-04-19T00:40:14.717Z,10.97
2023-04-19T00:42:41.958Z,9.50
2023-04-19T00:45:09.099Z,10.30
2023-04-19T00:47:36.501Z,10.03
2023-04-19T00:50:06.783Z,9.33
2023-04-19T00:52:34.471Z,10.80
2023-04-19T00:55:02.094Z,9.70
2023-04-19T00:57:29.833Z,9.43
2023-04-19T00:59:57.691Z,10.07
2023-04-19T01:02:24.372Z,9.13
2023-04-19T01:04:51.384Z,9.27
2023-04-19T01:07:19.201Z,9.90
2023-04-19T01:09:46.414Z,10.17
2023-04-19T01:12:13.052Z,9.30
2023-04-19T01:14:39.997Z,10.43
2023-04-19T01:17:07.633Z,10.50
2023-04-19T01:19:38.539Z,9.50
2023-04-19T01:22:06.434Z,10.73
2023-04-19T01:24:34.088Z,9.53
2023-04-19T01:27:02.150Z,9.73
2023-04-19T01:29:28.699Z,9.60
2023-04-19T01:31:55.241Z,9.83
2023-04-19T01:34:23.116Z,9.60
2023-04-19T01:36:49.839Z,8.90
2023-04-19T01:39:16.566Z,9.73
2023-04-19T01:41:43.179Z,9.00
2023-04-19T01:44:09.762Z,8.97
2023-04-19T01:46:38.720Z,10.10
2023-04-19T01:49:05.324Z,9.60
2023-04-19T01:51:31.973Z,8.63
2023-04-19T01:53:58.572Z,8.20
2023-04-19T01:56:26.032Z,9.00
2023-04-19T01:58:52.568Z,8.63
2023-04-19T02:01:19.256Z,9.67
2023-04-19T02:03:46.329Z,8.73
2023-04-19T02:06:13.802Z,7.83
2023-04-19T02:08:41.874Z,7.83
2023-04-19T02:11:09.571Z,8.43
2023-04-19T02:13:36.430Z,8.17
2023-04-19T02:16:03.505Z,8.10
2023-04-19T02:18:30.158Z,7.73
2023-04-19T02:20:56.819Z,7.37
2023-04-19T02:23:23.414Z,7.10
2023-04-19T02:25:50.765Z,7.30
2023-04-19T02:28:17.381Z,7.10
2023-04-19T02:30:43.936Z,6.60
2023-04-19T02:33:10.512Z,6.30
2023-04-19T02:35:37.321Z,6.63
2023-04-19T02:38:04.428Z,5.73
2023-04-19T02:40:31.533Z,6.67
2023-04-19T02:42:58.111Z,6.40
2023-04-19T02:45:24.758Z,6.30
2023-04-19T02:47:51.304Z,7.17
2023-04-19T02:50:17.909Z,5.90
2023-04-19T02:52:44.488Z,6.23
2023-04-19T02:55:11.152Z,5.90
2023-04-19T02:57:37.712Z,6.10
2023-04-19T03:00:05.833Z,6.50
2023-04-19T03:02:32.439Z,6.30
2023-04-19T03:04:59.141Z,5.60
2023-04-19T03:07:26.139Z,6.03
2023-04-19T03:09:52.738Z,6.60
2023-04-19T03:12:19.323Z,6.10
2023-04-19T03:14:45.964Z,5.73
2023-04-19T03:17:12.532Z,6.27
2023-04-19T03:19:39.092Z,6.23
2023-04-19T03:22:05.749Z,6.77
2023-04-19T03:24:33.066Z,6.63
2023-04-19T03:27:01.004Z,6.43
2023-04-19T03:29:27.557Z,5.50
2023-04-19T03:31:54.265Z,5.37
2023-04-19T03:34:20.915Z,5.87
2023-04-19T03:36:47.568Z,4.80
2023-04-19T03:39:14.156Z,5.57
2023-04-19T03:41:40.764Z,5.40
2023-04-19T03:44:07.362Z,5.47
2023-04-19T03:46:33.989Z,5.87
2023-04-19T03:49:00.629Z,5.60
2023-04-19T03:51:27.655Z,5.73
2023-04-19T03:53:54.223Z,6.00
2023-04-19T03:56:20.879Z,5.27
2023-04-19T03:58:47.550Z,4.80
2023-04-19T04:01:21.158Z,5.80
2023-04-19T04:03:48.354Z,5.80
2023-04-19T04:06:15.606Z,6.10
2023-04-19T04:08:42.244Z,5.00
2023-04-19T04:11:08.953Z,5.20
2023-04-19T04:13:35.586Z,4.93
2023-04-19T04:16:02.285Z,5.93
2023-04-19T04:18:28.939Z,5.73
2023-04-19T04:20:55.572Z,5.37
2023-04-19T04:23:22.682Z,5.73
2023-04-19T04:25:59.041Z,6.30
2023-04-19T04:28:25.648Z,5.70
2023-04-19T04:30:52.191Z,5.90
2023-04-19T04:33:18.854Z,5.53
2023-04-19T04:35:45.448Z,5.77
2023-04-19T04:38:23.703Z,6.10
2023-04-19T04:40:55.036Z,5.40
2023-04-19T04:43:23.101Z,6.47
2023-04-19T04:45:50.209Z,5.90
2023-04-19T04:48:16.791Z,5.50
2023-04-19T04:50:44.151Z,5.37
2023-04-19T04:53:13.162Z,6.33
2023-04-19T04:55:39.893Z,5.70
2023-04-19T04:58:06.961Z,5.40
2023-04-19T05:00:34.268Z,5.70
2023-04-19T05:03:02.122Z,5.70
2023-04-19T05:05:28.905Z,5.50
2023-04-19T05:07:55.478Z,5.03
2023-04-19T05:10:22.053Z,6.30
2023-04-19T05:12:48.659Z,5.53
2023-04-19T05:15:17.813Z,5.77
2023-04-19T05:17:44.456Z,5.70
2023-04-19T05:20:11.911Z,5.33
2023-04-19T05:22:38.709Z,5.50
2023-04-19T05:25:06.335Z,5.17
2023-04-19T05:27:32.961Z,5.03
2023-04-19T05:29:59.504Z,5.30
2023-04-19T05:32:26.173Z,5.17
2023-04-19T05:34:52.864Z,5.13
2023-04-19T05:37:19.424Z,5.10
2023-04-19T05:39:45.990Z,4.30
2023-04-19T05:42:12.551Z,4.87
2023-04-19T05:44:39.106Z,5.00
2023-04-19T05:47:05.711Z,4.63
2023-04-19T05:49:32.270Z,5.17
2023-04-19T05:51:58.801Z,4.60
2023-04-19T05:54:25.405Z,4.83
2023-04-19T05:56:51.963Z,3.83
2023-04-19T05:59:18.554Z,4.93
2023-04-19T06:01:45.464Z,4.10
2023-04-19T06:04:12.174Z,4.77
2023-04-19T06:06:39.196Z,4.30
2023-04-19T06:09:07.038Z,4.07
2023-04-19T06:11:42.941Z,4.23
2023-04-19T06:14:16.827Z,4.30
2023-04-19T06:16:43.650Z,4.37
2023-04-19T06:19:10.221Z,3.90
2023-04-19T06:21:36.943Z,4.00
2023-04-19T06:24:03.858Z,3.73
2023-04-19T06:26:30.528Z,3.67
2023-04-19T06:28:57.250Z,4.13
2023-04-19T06:31:23.966Z,3.70
2023-04-19T06:33:50.968Z,3.80
2023-04-19T06:36:17.639Z,3.50
2023-04-19T06:38:46.138Z,3.20
2023-04-19T06:41:13.083Z,3.13
2023-04-19T06:43:40.771Z,3.20
2023-04-19T06:46:07.806Z,3.50
2023-04-19T06:48:35.433Z,3.40
2023-04-19T06:51:02.097Z,4.10
2023-04-19T06:53:28.714Z,4.10
2023-04-19T06:56:04.314Z,3.70
2023-04-19T06:58:35.141Z,3.40
2023-04-19T07:01:04.394Z,3.30
2023-04-19T07:03:31.595Z,2.80
2023-04-19T07:05:58.574Z,3.20
2023-04-19T07:08:32.162Z,3.30
2023-04-19T07:11:05.755Z,3.30
2023-04-19T07:13:32.349Z,3.30
2023-04-19T07:15:58.965Z,3.20
2023-04-19T07:18:25.669Z,2.80
2023-04-19T07:20:52.230Z,3.00
2023-04-19T07:23:19.368Z,3.30
2023-04-19T07:25:46.395Z,2.87
2023-04-19T07:28:13.105Z,2.90
2023-04-19T07:30:39.798Z,2.80
2023-04-19T07:33:08.513Z,3.17
2023-04-19T07:35:35.800Z,2.87
2023-04-19T07:38:02.449Z,2.70
2023-04-19T07:40:29.132Z,3.03
2023-04-19T07:42:56.336Z,2.80
2023-04-19T07:45:23.373Z,2.47
2023-04-19T07:47:50.419Z,2.83
2023-04-19T07:50:17.464Z,2.77
2023-04-19T07:52:44.278Z,3.10
2023-04-19T07:55:10.882Z,2.80
2023-04-19T07:57:37.565Z,2.57
2023-04-19T08:00:05.011Z,2.70
2023-04-19T08:02:31.795Z,2.20
2023-04-19T08:04:58.581Z,2.50
2023-04-19T08:07:26.104Z,2.40
2023-04-19T08:09:52.835Z,2.47
2023-04-19T08:12:32.778Z,2.30
2023-04-19T08:15:28.193Z,2.10
2023-04-19T08:17:54.520Z,2.30
2023-04-19T08:20:21.708Z,2.03
2023-04-19T08:22:49.319Z,1.80
2023-04-19T08:25:16.532Z,2.30
2023-04-19T08:27:43.298Z,2.30
2023-04-19T08:30:10.959Z,2.20
2023-04-19T08:32:37.845Z,1.80
2023-04-19T08:35:05.504Z,2.10
2023-04-19T08:37:32.054Z,1.97
2023-04-19T08:39:58.745Z,1.90
2023-04-19T08:42:35.762Z,1.90
2023-04-19T08:47:51.866Z,2.00
2023-04-19T08:50:31.910Z,1.80
2023-04-19T08:53:12.327Z,2.13
2023-04-19T08:58:30.722Z,1.93
2023-04-19T09:01:11.172Z,2.10
2023-04-19T09:04:00.551Z,2.10
2023-04-19T09:06:40.656Z,1.97
2023-04-19T09:11:49.521Z,2.20
2023-04-19T09:14:19.601Z,2.33
2023-04-19T09:16:46.283Z,2.23
2023-04-19T09:19:23.176Z,2.37
2023-04-19T09:21:53.686Z,1.80
2023-04-19T09:25:04.477Z,2.00
2023-04-19T09:27:28.836Z,2.90
2023-04-19T09:29:56.950Z,2.10
2023-04-19T09:32:24.744Z,2.30
2023-04-19T09:34:52.895Z,3.20
2023-04-19T09:37:38.392Z,2.47
2023-04-19T09:40:25.732Z,2.20
2023-04-19T09:45:31.025Z,2.20
2023-04-19T09:48:03.294Z,2.40
2023-04-19T09:50:31.904Z,3.20
2023-04-19T09:52:59.892Z,2.93
2023-04-19T09:55:28.826Z,2.40
2023-04-19T09:57:56.925Z,2.73
2023-04-19T10:00:23.666Z,2.20
2023-04-19T10:02:57.972Z,2.53
2023-04-19T10:05:25.625Z,2.50
2023-04-19T10:07:55.685Z,2.33
2023-04-19T10:10:40.623Z,2.93
2023-04-19T10:13:19.924Z,2.90
2023-04-19T10:15:53.951Z,2.30
2023-04-19T10:18:24.215Z,2.17
2023-04-19T10:21:06.503Z,2.57
2023-04-19T10:23:33.623Z,2.30
2023-04-19T10:26:00.364Z,2.97
2023-04-19T10:28:30.934Z,3.70
2023-04-19T10:31:03.336Z,4.23
2023-04-19T10:33:34.442Z,3.27
2023-04-19T10:36:01.718Z,2.57
2023-04-19T10:38:47.175Z,2.70
2023-04-19T10:41:21.586Z,5.10
2023-04-19T10:44:09.159Z,5.10
2023-04-19T10:46:36.987Z,7.40
2023-04-19T10:49:05.032Z,3.07
2023-04-19T10:51:36.118Z,5.03
2023-04-19T10:54:10.134Z,8.93
2023-04-19T10:56:36.746Z,13.33
2023-04-19T10:59:13.005Z,11.30
2023-04-19T11:01:46.817Z,3.53
2023-04-19T11:04:23.264Z,4.40
2023-04-19T11:06:52.714Z,4.83
2023-04-19T11:09:39.218Z,3.73
2023-04-19T11:12:17.030Z,3.10
2023-04-19T11:14:46.568Z,3.57
2023-04-19T11:17:31.654Z,2.80
2023-04-19T11:20:10.117Z,2.67
2023-04-19T11:22:42.043Z,3.37
2023-04-19T11:25:12.197Z,2.70
2023-04-19T11:27:40.777Z,3.27
2023-04-19T11:30:19.953Z,5.93
2023-04-19T11:32:50.713Z,5.57
2023-04-19T11:35:22.153Z,3.60
2023-04-19T11:37:49.760Z,3.87
2023-04-19T11:40:18.092Z,4.00
2023-04-19T11:42:45.260Z,3.60
2023-04-19T11:45:25.974Z,2.93
2023-04-19T11:47:57.001Z,3.10
2023-04-19T11:50:38.508Z,6.60
2023-04-19T11:53:14.081Z,3.90
2023-04-19T11:55:54.600Z,3.70
2023-04-19T11:58:25.686Z,13.90
2023-04-19T12:00:52.565Z,3.70
2023-04-19T12:03:27.095Z,6.10
2023-04-19T12:05:58.906Z,15.90
2023-04-19T12:08:48.639Z,7.60
2023-04-19T12:11:16.975Z,11.53
2023-04-19T12:13:44.535Z,10.20
2023-04-19T12:16:12.529Z,8.20
2023-04-19T12:18:44.513Z,13.20
2023-04-19T12:21:23.405Z,5.13
2023-04-19T12:23:50.922Z,5.90
2023-04-19T12:26:17.538Z,4.97
2023-04-19T12:28:44.071Z,5.90
2023-04-19T12:31:11.021Z,3.70
2023-04-19T12:33:37.848Z,4.30
2023-04-19T12:36:04.896Z,3.47
2023-04-19T12:38:34.158Z,3.00
2023-04-19T12:41:01.647Z,3.03
2023-04-19T12:43:29.976Z,2.73
2023-04-19T12:45:56.841Z,3.40
2023-04-19T12:48:23.574Z,3.33
2023-04-19T12:50:50.197Z,3.03
2023-04-19T12:53:16.828Z,2.67
2023-04-19T12:55:47.482Z,3.00
2023-04-19T12:58:15.692Z,5.63
2023-04-19T13:00:42.738Z,8.13
2023-04-19T13:03:09.544Z,5.60
2023-04-19T13:05:36.215Z,5.87
2023-04-19T13:08:02.954Z,5.00
2023-04-19T13:10:29.500Z,4.90
2023-04-19T13:12:56.647Z,3.83
2023-04-19T13:15:23.225Z,3.43
2023-04-19T13:17:49.875Z,4.47
2023-04-19T13:20:17.648Z,3.30
2023-04-19T13:22:44.281Z,16.33
2023-04-19T13:25:11.172Z,21.63
2023-04-19T13:27:37.833Z,12.20
2023-04-19T13:30:04.748Z,8.17
2023-04-19T13:32:31.427Z,7.30
2023-04-19T13:34:58.018Z,3.50
2023-04-19T13:37:24.589Z,3.17
2023-04-19T13:39:51.294Z,3.33
2023-04-19T13:42:18.948Z,3.37
2023-04-19T13:44:45.596Z,2.97
2023-04-19T13:47:12.271Z,3.17
2023-04-19T13:49:41.672Z,2.83
2023-04-19T13:52:09.704Z,2.70
2023-04-19T13:54:36.302Z,2.90
2023-04-19T13:57:02.947Z,2.23
2023-04-19T13:59:30.156Z,2.60
2023-04-19T14:01:56.808Z,2.90
2023-04-19T14:04:24.119Z,2.30
2023-04-19T14:06:51.159Z,2.43
2023-04-19T14:09:17.696Z,2.30
2023-04-19T14:11:44.267Z,3.13
2023-04-19T14:14:11.284Z,2.50
2023-04-19T14:16:37.888Z,2.47
2023-04-19T14:19:04.504Z,2.23
2023-04-19T14:21:31.369Z,3.43
2023-04-19T14:23:58.077Z,2.60
2023-04-19T14:26:26.290Z,2.60
2023-04-19T14:28:54.125Z,2.70
2023-04-19T14:31:20.830Z,3.53
2023-04-19T14:33:47.556Z,3.10
2023-04-19T14:36:15.468Z,2.50
2023-04-19T14:38:42.005Z,2.43
2023-04-19T14:41:08.539Z,2.90
2023-04-19T14:43:35.086Z,2.63
2023-04-19T14:46:01.746Z,2.80
2023-04-19T14:48:28.443Z,2.37
2023-04-19T14:50:55.714Z,2.67
2023-04-19T14:53:22.300Z,2.43
2023-04-19T14:55:48.928Z,2.67
2023-04-19T14:58:15.585Z,2.63
2023-04-19T15:00:42.461Z,1.90
2023-04-19T15:03:09.109Z,2.20
2023-04-19T15:05:36.496Z,2.47
2023-04-19T15:08:03.231Z,2.10
2023-04-19T15:10:29.903Z,1.80
2023-04-19T15:12:56.637Z,2.50
2023-04-19T15:15:23.222Z,2.10
2023-04-19T15:17:49.811Z,2.40
2023-04-19T15:20:16.518Z,2.30
2023-04-19T15:22:43.103Z,2.23
2023-04-19T15:25:09.854Z,2.53
2023-04-19T15:27:36.614Z,2.00
2023-04-19T15:30:03.732Z,1.70
2023-04-19T15:32:34.147Z,1.90
2023-04-19T15:35:00.771Z,1.80
2023-04-19T15:37:27.526Z,2.20
2023-04-19T15:39:54.131Z,1.53
2023-04-19T15:42:20.680Z,1.87
2023-04-19T15:44:47.258Z,1.70
2023-04-19T15:47:13.867Z,1.67
2023-04-19T15:49:40.633Z,1.70
2023-04-19T15:52:08.795Z,1.67
2023-04-19T15:54:37.555Z,1.73
2023-04-19T15:57:04.123Z,2.03
2023-04-19T15:59:31.471Z,2.07
2023-04-19T16:01:58.188Z,2.20
2023-04-19T16:04:25.023Z,2.00
2023-04-19T16:06:51.938Z,1.97
2023-04-19T16:09:19.207Z,1.83
2023-04-19T16:11:45.946Z,1.80
2023-04-19T16:14:12.521Z,1.60
2023-04-19T16:16:39.243Z,1.70
2023-04-19T16:19:05.911Z,1.87
2023-04-19T16:21:32.623Z,2.00
2023-04-19T16:24:00.798Z,1.63
2023-04-19T16:26:27.423Z,2.13
2023-04-19T16:28:54.106Z,1.90
2023-04-19T16:31:23.984Z,2.03
2023-04-19T16:33:50.761Z,1.97
2023-04-19T16:36:17.327Z,2.00
2023-04-19T16:38:43.858Z,1.80
2023-04-19T16:41:11.466Z,2.10
2023-04-19T16:43:38.071Z,2.53
2023-04-19T16:46:06.935Z,2.20
2023-04-19T16:48:33.571Z,2.10
2023-04-19T16:51:00.118Z,2.30
2023-04-19T16:53:26.700Z,2.20
2023-04-19T16:55:55.018Z,2.07
2023-04-19T16:58:22.867Z,2.10
2023-04-19T17:00:49.536Z,1.80
2023-04-19T17:03:16.601Z,1.93
2023-04-19T17:05:43.255Z,2.00
2023-04-19T17:08:11.006Z,2.40
2023-04-19T17:10:38.068Z,2.50
2023-04-19T17:13:04.622Z,3.20
2023-04-19T17:15:31.457Z,2.63
2023-04-19T17:17:58.127Z,2.10
2023-04-19T17:20:24.706Z,2.37
2023-04-19T17:22:51.397Z,2.73
2023-04-19T17:25:18.338Z,2.57
2023-04-19T17:27:45.796Z,3.00
2023-04-19T17:30:12.917Z,2.73
2023-04-19T17:32:40.337Z,2.53
2023-04-19T17:35:07.392Z,2.37
2023-04-19T17:37:34.022Z,3.20
2023-04-19T17:40:00.559Z,2.70
2023-04-19T17:42:27.192Z,2.67
2023-04-19T17:44:53.819Z,2.60
2023-04-19T17:47:20.488Z,2.47
2023-04-19T17:49:47.251Z,2.97
2023-04-19T17:52:13.920Z,3.17
2023-04-19T17:54:40.989Z,2.77
2023-04-19T17:57:07.643Z,3.13
2023-04-19T17:59:34.339Z,3.00
2023-04-19T18:02:01.214Z,2.97
2023-04-19T18:04:28.114Z,3.07
2023-04-19T18:06:54.779Z,3.23
2023-04-19T18:09:21.330Z,2.87
2023-04-19T18:11:48.100Z,3.67
2023-04-19T18:14:15.316Z,3.20
2023-04-19T18:16:41.948Z,3.23
2023-04-19T18:19:08.604Z,2.90
2023-04-19T18:21:35.581Z,3.00
2023-04-19T18:24:02.280Z,3.00
2023-04-19T18:26:41.615Z,2.80
2023-04-19T18:29:08.987Z,3.30
2023-04-19T18:31:35.761Z,2.50
2023-04-19T18:34:02.864Z,2.80
2023-04-19T18:36:29.755Z,3.17
2023-04-19T18:38:56.605Z,3.67
2023-04-19T18:41:23.244Z,3.27
2023-04-19T18:44:08.172Z,3.47
2023-04-19T18:46:36.509Z,4.00
2023-04-19T18:49:03.200Z,3.57
2023-04-19T18:51:30.077Z,3.77
2023-04-19T18:53:56.984Z,3.53
2023-04-19T18:59:38.367Z,3.47
2023-04-19T19:02:05.435Z,3.17
2023-04-19T19:04:50.086Z,3.23
2023-04-19T19:07:36.741Z,3.03
2023-04-19T19:10:16.779Z,3.53
2023-04-19T19:12:47.883Z,3.43
2023-04-19T19:15:21.829Z,3.60
2023-04-19T19:17:50.203Z,3.27
2023-04-19T19:20:18.581Z,2.90
2023-04-19T19:22:45.478Z,3.03
2023-04-19T19:25:12.994Z,3.47
2023-04-19T19:27:40.098Z,3.97
2023-04-19T19:30:07.785Z,3.10
2023-04-19T19:32:34.675Z,3.70
2023-04-19T19:35:05.584Z,2.93
2023-04-19T19:37:35.426Z,3.03
2023-04-19T19:40:05.117Z,3.57
2023-04-19T19:42:34.090Z,3.27
2023-04-19T19:45:01.967Z,3.30
2023-04-19T19:47:31.192Z,3.20
2023-04-19T19:52:28.440Z,3.17
2023-04-19T19:54:55.026Z,2.83
2023-04-19T19:58:15.588Z,2.57
2023-04-19T20:00:28.055Z,3.10
2023-04-19T20:02:58.833Z,3.77
2023-04-19T20:05:26.331Z,3.20
2023-04-19T20:08:05.663Z,3.50
2023-04-19T20:10:32.475Z,3.30
2023-04-19T20:13:01.205Z,3.50
2023-04-19T20:15:28.050Z,2.70
2023-04-19T20:17:54.630Z,3.20
2023-04-19T20:20:21.345Z,3.50
2023-04-19T20:22:48.054Z,3.27
2023-04-19T20:25:15.072Z,3.10
2023-04-19T20:27:41.734Z,3.07
2023-04-19T20:30:09.264Z,2.90
2023-04-19T20:32:36.563Z,2.97
2023-04-19T20:35:08.328Z,2.93
2023-04-19T20:37:39.627Z,3.10
2023-04-19T20:40:07.535Z,3.30
2023-04-19T20:42:34.183Z,4.30
2023-04-19T20:45:00.757Z,2.97
2023-04-19T20:47:27.366Z,3.10
2023-04-19T20:49:53.941Z,3.30
2023-04-19T20:52:20.693Z,3.43
2023-04-19T20:54:47.291Z,2.80
2023-04-19T20:57:14.806Z,2.97
2023-04-19T20:59:41.510Z,3.10
2023-04-19T21:02:08.432Z,3.07
2023-04-19T21:04:36.048Z,3.50
2023-04-19T21:07:02.848Z,3.30
2023-04-19T21:09:29.474Z,2.47
2023-04-19T21:11:56.592Z,2.90
2023-04-19T21:14:23.151Z,3.27
2023-04-19T21:16:49.746Z,3.07
2023-04-19T21:19:17.072Z,2.70
2023-04-19T21:21:43.802Z,2.57
2023-04-19T21:24:10.341Z,3.20
2023-04-19T21:26:36.916Z,2.80
2023-04-19T21:29:03.523Z,3.00
2023-04-19T21:31:30.150Z,3.00
2023-04-19T21:33:56.720Z,3.10
2023-04-19T21:36:23.265Z,2.80
2023-04-19T21:38:49.856Z,4.00
2023-04-19T21:41:16.396Z,3.20
2023-04-19T21:43:43.024Z,3.10
2023-04-19T21:46:09.580Z,3.47
2023-04-19T21:48:36.192Z,3.27
2023-04-19T21:51:02.851Z,3.20
2023-04-19T21:53:29.537Z,2.67
2023-04-19T21:55:56.229Z,2.67
2023-04-19T21:58:22.831Z,2.93
2023-04-19T22:00:49.528Z,2.80
2023-04-19T22:03:16.233Z,3.13
2023-04-19T22:05:45.857Z,3.17
2023-04-19T22:08:12.460Z,2.87
2023-04-19T22:10:39.311Z,2.73
2023-04-19T22:13:05.937Z,3.30
2023-04-19T22:15:32.597Z,3.20
2023-04-19T22:17:59.213Z,3.00
2023-04-19T22:20:26.793Z,2.87
2023-04-19T22:22:53.440Z,3.10
2023-04-19T22:25:20.180Z,2.83
2023-04-19T22:27:48.689Z,3.07
2023-04-19T22:30:16.079Z,3.53
2023-04-19T22:32:42.752Z,3.40
2023-04-19T22:35:12.296Z,3.20
2023-04-19T22:37:38.893Z,2.73
2023-04-19T22:40:06.682Z,3.27
2023-04-19T22:42:33.251Z,3.70
2023-04-19T22:44:59.826Z,3.17
2023-04-19T22:47:26.464Z,3.37
2023-04-19T22:49:54.125Z,3.10
2023-04-19T22:52:20.776Z,3.20
2023-04-19T22:54:47.346Z,2.93
2023-04-19T22:57:13.962Z,2.70
2023-04-19T22:59:40.521Z,3.33
2023-04-19T23:02:07.174Z,3.63
2023-04-19T23:04:35.340Z,3.53
2023-04-19T23:07:02.981Z,3.37
2023-04-19T23:09:29.854Z,3.20
2023-04-19T23:11:58.472Z,3.00
2023-04-19T23:14:25.105Z,2.80
2023-04-19T23:16:54.554Z,3.20
2023-04-19T23:19:22.714Z,3.37
2023-04-19T23:21:50.196Z,3.30
2023-04-19T23:24:17.536Z,3.40
2023-04-19T23:26:44.171Z,2.87
2023-04-19T23:29:10.766Z,3.80
2023-04-19T23:31:37.387Z,3.10
2023-04-19T23:34:04.086Z,2.90
2023-04-19T23:36:31.194Z,3.37
2023-04-19T23:38:57.888Z,3.37
2023-04-19T23:41:24.616Z,3.13
2023-04-19T23:43:51.419Z,3.17
2023-04-19T23:46:17.985Z,3.47
2023-04-19T23:48:44.602Z,2.47
2023-04-19T23:51:12.461Z,2.97
2023-04-19T23:53:39.081Z,3.37
2023-04-19T23:56:06.457Z,2.63
2023-04-19T23:58:33.071Z,2.90
